createdAt,value
2022-08-09T00:01:39.876Z,99.90
2022-08-09T00:04:39.670Z,99.90
2022-08-09T00:07:44.408Z,99.90
2022-08-09T00:10:38.984Z,99.90
2022-08-09T00:13:31.767Z,99.90
2022-08-09T00:16:25.894Z,99.90
2022-08-09T00:19:18.803Z,99.90
2022-08-09T00:22:11.375Z,99.90
2022-08-09T00:25:04.074Z,99.90
2022-08-09T00:28:04.153Z,99.90
2022-08-09T00:30:58.355Z,99.90
2022-08-09T00:33:52.281Z,99.90
2022-08-09T00:36:44.548Z,99.90
2022-08-09T00:40:13.334Z,99.90
2022-08-09T00:44:13.137Z,99.90
2022-08-09T00:46:01.568Z,99.90
2022-08-09T00:48:56.214Z,99.90
2022-08-09T00:51:54.392Z,99.90
2022-08-09T00:54:49.338Z,99.90
2022-08-09T00:57:41.604Z,99.90
2022-08-09T01:00:35.076Z,99.90
2022-08-09T01:03:48.350Z,99.90
2022-08-09T01:06:54.405Z,99.90
2022-08-09T01:09:59.319Z,99.90
2022-08-09T01:13:22.128Z,99.90
2022-08-09T01:16:17.290Z,99.90
2022-08-09T01:20:01.735Z,99.90
2022-08-09T01:24:02.270Z,99.90
2022-08-09T01:27:00.101Z,99.90
2022-08-09T01:30:00.537Z,99.90
2022-08-09T01:32:55.754Z,99.90
2022-08-09T01:36:02.085Z,99.90
2022-08-09T01:38:56.613Z,99.90
2022-08-09T01:41:53.563Z,99.90
2022-08-09T01:44:54.959Z,99.90
2022-08-09T01:47:49.803Z,99.90
2022-08-09T01:50:48.367Z,99.90
2022-08-09T01:53:42.986Z,99.90
2022-08-09T01:56:38.817Z,99.90
2022-08-09T01:59:32.724Z,99.90
2022-08-09T02:02:38.747Z,99.90
2022-08-09T02:05:38.006Z,99.90
2022-08-09T02:08:58.567Z,99.90
2022-08-09T02:11:54.274Z,99.90
2022-08-09T02:14:52.832Z,99.90
2022-08-09T02:18:00.944Z,99.90
2022-08-09T02:21:03.608Z,99.90
2022-08-09T02:23:58.759Z,99.90
2022-08-09T02:26:58.797Z,99.90
2022-08-09T02:29:54.293Z,99.90
2022-08-09T02:32:48.567Z,99.90
2022-08-09T02:36:02.012Z,99.90
2022-08-09T02:39:00.861Z,99.90
2022-08-09T02:42:00.035Z,99.90
2022-08-09T02:45:03.092Z,99.90
2022-08-09T02:48:00.830Z,99.90
2022-08-09T02:50:56.500Z,99.90
2022-08-09T02:54:00.584Z,99.90
2022-08-09T02:56:57.135Z,99.90
2022-08-09T03:00:21.144Z,99.90
2022-08-09T03:03:03.865Z,99.90
2022-08-09T03:05:58.240Z,99.90
2022-08-09T03:08:53.201Z,99.90
2022-08-09T03:12:05.641Z,99.90
2022-08-09T03:15:01.386Z,99.90
2022-08-09T03:17:58.880Z,99.90
2022-08-09T03:20:52.362Z,99.90
2022-08-09T03:24:03.670Z,99.90
2022-08-09T03:26:57.756Z,99.90
2022-08-09T03:29:57.857Z,99.90
2022-08-09T03:32:56.745Z,99.90
2022-08-09T03:36:13.716Z,99.90
2022-08-09T03:39:04.738Z,99.90
2022-08-09T03:42:05.955Z,99.90
2022-08-09T03:44:59.278Z,99.90
2022-08-09T03:47:51.456Z,99.90
2022-08-09T03:50:44.938Z,99.90
2022-08-09T03:53:38.322Z,99.90
2022-08-09T03:56:31.264Z,99.90
2022-08-09T03:59:42.742Z,99.90
2022-08-09T04:02:36.792Z,99.90
2022-08-09T04:05:29.266Z,99.90
2022-08-09T04:08:29.041Z,99.90
2022-08-09T04:11:22.062Z,99.90
2022-08-09T04:14:37.116Z,99.90
2022-08-09T04:17:31.349Z,99.90
2022-08-09T04:20:23.629Z,99.90
2022-08-09T04:23:24.265Z,99.90
2022-08-09T04:26:17.030Z,99.90
2022-08-09T04:29:15.869Z,99.90
2022-08-09T04:32:08.196Z,99.90
2022-08-09T04:35:01.339Z,99.90
2022-08-09T04:37:53.761Z,99.90
2022-08-09T04:40:56.442Z,99.90
2022-08-09T04:44:06.053Z,99.90
2022-08-09T04:47:04.373Z,99.90
2022-08-09T04:49:58.249Z,99.90
2022-08-09T04:52:50.496Z,99.90
2022-08-09T04:55:57.453Z,99.90
2022-08-09T04:58:51.372Z,99.90
2022-08-09T05:01:47.618Z,99.90
2022-08-09T05:04:40.193Z,99.90
2022-08-09T05:07:33.042Z,99.90
2022-08-09T05:10:25.319Z,99.90
2022-08-09T05:13:17.724Z,99.90
2022-08-09T05:16:10.405Z,99.90
2022-08-09T05:19:02.965Z,99.90
2022-08-09T05:21:55.995Z,99.90
2022-08-09T05:24:48.867Z,99.90
2022-08-09T05:27:50.839Z,99.90
2022-08-09T05:30:47.908Z,99.90
2022-08-09T05:33:42.448Z,99.90
2022-08-09T05:36:34.894Z,99.90
2022-08-09T05:39:29.410Z,99.90
2022-08-09T05:42:27.865Z,99.90
2022-08-09T05:45:20.617Z,99.90
2022-08-09T05:48:17.096Z,99.90
2022-08-09T05:51:29.865Z,99.90
2022-08-09T05:54:25.201Z,99.90
2022-08-09T05:57:19.136Z,99.90
2022-08-09T06:00:13.290Z,99.90
2022-08-09T06:03:10.752Z,99.90
2022-08-09T06:06:05.951Z,99.90
2022-08-09T06:08:58.768Z,99.90
2022-08-09T06:11:57.059Z,99.90
2022-08-09T06:14:50.046Z,99.90
2022-08-09T06:17:42.577Z,99.90
2022-08-09T06:20:39.243Z,99.90
2022-08-09T06:23:58.050Z,99.90
2022-08-09T06:26:45.448Z,99.90
2022-08-09T06:29:48.336Z,99.90
2022-08-09T06:32:53.519Z,99.90
2022-08-09T06:36:07.320Z,99.50
2022-08-09T06:39:02.331Z,99.00
2022-08-09T06:42:08.450Z,99.20
2022-08-09T06:46:03.371Z,99.20
2022-08-09T06:48:16.574Z,99.90
2022-08-09T06:51:12.767Z,99.90
2022-08-09T06:54:09.287Z,99.90
2022-08-09T06:57:08.348Z,99.60
2022-08-09T07:00:56.498Z,98.20
2022-08-09T07:03:12.816Z,95.90
2022-08-09T07:06:06.447Z,96.10
2022-08-09T07:08:59.685Z,95.90
2022-08-09T07:11:53.383Z,96.00
2022-08-09T07:14:51.475Z,95.60
2022-08-09T07:17:52.652Z,94.80
2022-08-09T07:20:50.780Z,95.30
2022-08-09T07:23:46.599Z,95.60
2022-08-09T07:26:50.858Z,97.90
2022-08-09T07:29:43.258Z,96.70
2022-08-09T07:32:35.629Z,97.00
2022-08-09T07:35:28.474Z,97.10
2022-08-09T07:38:23.512Z,98.00
2022-08-09T07:41:15.968Z,98.00
2022-08-09T07:44:08.895Z,99.00
2022-08-09T07:47:04.058Z,98.10
2022-08-09T07:50:07.718Z,99.10
2022-08-09T07:53:03.067Z,98.90
2022-08-09T07:56:03.283Z,99.30
2022-08-09T07:58:59.750Z,99.70
2022-08-09T08:01:53.044Z,99.00
2022-08-09T08:04:48.903Z,96.80
2022-08-09T08:08:43.177Z,96.00
2022-08-09T08:12:09.338Z,95.40
2022-08-09T08:14:06.618Z,92.40
2022-08-09T08:17:07.451Z,93.50
2022-08-09T08:20:00.170Z,92.90
2022-08-09T08:22:52.713Z,91.70
2022-08-09T08:25:59.403Z,92.00
2022-08-09T08:28:58.980Z,90.10
2022-08-09T08:32:03.946Z,89.80
2022-08-09T08:34:59.287Z,91.50
2022-08-09T08:38:01.993Z,93.20
2022-08-09T08:41:06.280Z,91.50
2022-08-09T08:44:02.672Z,91.00
2022-08-09T08:47:02.059Z,91.60
2022-08-09T08:49:58.094Z,92.40
2022-08-09T08:52:59.299Z,93.40
2022-08-09T08:55:52.382Z,92.00
2022-08-09T08:58:46.561Z,92.50
2022-08-09T09:01:51.926Z,92.40
2022-08-09T09:04:52.751Z,92.30
2022-08-09T09:07:50.417Z,90.50
2022-08-09T09:10:44.342Z,89.90
2022-08-09T09:13:54.794Z,89.00
2022-08-09T09:16:49.880Z,88.70
2022-08-09T09:19:42.865Z,88.30
2022-08-09T09:23:01.967Z,89.50
2022-08-09T09:26:01.328Z,88.90
2022-08-09T09:29:04.208Z,85.80
2022-08-09T09:32:15.400Z,86.80
2022-08-09T09:35:10.478Z,88.90
2022-08-09T09:38:05.286Z,87.50
2022-08-09T09:41:01.260Z,85.10
2022-08-09T09:44:10.706Z,84.50
2022-08-09T09:47:21.517Z,84.00
2022-08-09T09:50:17.362Z,87.40
2022-08-09T09:53:16.239Z,88.30
2022-08-09T09:56:08.465Z,88.50
2022-08-09T09:59:14.378Z,88.20
2022-08-09T10:02:09.274Z,87.30
2022-08-09T10:05:08.642Z,89.10
2022-08-09T10:08:26.151Z,89.80
2022-08-09T10:11:59.696Z,89.80
2022-08-09T10:14:37.869Z,88.50
2022-08-09T10:17:54.984Z,86.40
2022-08-09T10:20:46.861Z,87.00
2022-08-09T10:23:39.805Z,89.00
2022-08-09T10:26:32.069Z,88.20
2022-08-09T10:30:22.771Z,86.90
2022-08-09T10:32:42.212Z,89.00
2022-08-09T10:35:43.237Z,86.70
2022-08-09T10:38:57.084Z,85.70
2022-08-09T10:41:50.776Z,87.00
2022-08-09T10:44:48.100Z,89.10
2022-08-09T10:48:16.385Z,90.50
2022-08-09T10:51:41.199Z,90.80
2022-08-09T10:54:33.703Z,91.20
2022-08-09T10:57:37.557Z,91.90
2022-08-09T11:00:33.071Z,91.70
2022-08-09T11:03:27.842Z,90.50
2022-08-09T11:06:44.699Z,88.90
2022-08-09T11:09:47.967Z,87.60
2022-08-09T11:12:41.213Z,87.60
2022-08-09T11:15:38.461Z,86.70
2022-08-09T11:18:45.862Z,86.20
2022-08-09T11:21:57.220Z,86.30
2022-08-09T11:24:57.939Z,84.50
2022-08-09T11:28:09.189Z,84.70
2022-08-09T11:31:50.129Z,85.10
2022-08-09T11:34:46.155Z,87.20
2022-08-09T11:37:44.970Z,85.90
2022-08-09T11:40:42.379Z,87.40
2022-08-09T11:43:37.472Z,86.90
2022-08-09T11:46:54.838Z,87.70
2022-08-09T11:50:53.801Z,88.90
2022-08-09T11:53:20.959Z,88.00
2022-08-09T11:56:41.808Z,88.90
2022-08-09T11:59:39.726Z,88.20
2022-08-09T12:02:51.212Z,86.50
2022-08-09T12:05:47.198Z,87.90
2022-08-09T12:08:46.456Z,88.90
2022-08-09T12:12:02.183Z,86.50
2022-08-09T12:15:07.970Z,89.00
2022-08-09T12:18:01.338Z,87.80
2022-08-09T12:20:53.640Z,89.40
2022-08-09T12:24:06.181Z,89.30
2022-08-09T12:28:58.297Z,89.70
2022-08-09T12:30:37.047Z,87.60
2022-08-09T12:33:35.263Z,88.20
2022-08-09T12:36:58.874Z,88.50
2022-08-09T12:40:05.642Z,87.60
2022-08-09T12:42:58.264Z,87.70
2022-08-09T12:45:59.372Z,86.80
2022-08-09T12:48:56.189Z,86.40
2022-08-09T12:52:02.511Z,86.20
2022-08-09T12:55:03.134Z,83.80
2022-08-09T12:58:24.393Z,85.30
2022-08-09T13:01:26.793Z,85.00
2022-08-09T13:04:33.318Z,86.30
2022-08-09T13:07:51.303Z,87.60
2022-08-09T13:10:52.941Z,87.30
2022-08-09T13:14:40.563Z,87.10
2022-08-09T13:17:02.705Z,86.20
2022-08-09T13:20:06.925Z,86.30
2022-08-09T13:23:16.565Z,86.60
2022-08-09T13:26:53.324Z,87.90
2022-08-09T13:30:49.371Z,89.30
2022-08-09T13:33:24.497Z,89.10
2022-08-09T13:36:37.956Z,88.90
2022-08-09T13:41:50.577Z,89.00
2022-08-09T13:42:44.507Z,88.80
2022-08-09T13:46:42.419Z,89.30
2022-08-09T13:48:49.178Z,88.10
2022-08-09T13:51:42.416Z,90.10
2022-08-09T13:55:00.609Z,90.00
2022-08-09T13:57:58.542Z,89.00
2022-08-09T14:00:52.481Z,88.80
2022-08-09T14:04:04.794Z,90.20
2022-08-09T14:06:59.927Z,88.60
2022-08-09T14:09:55.788Z,87.80
2022-08-09T14:12:50.099Z,87.60
2022-08-09T14:16:09.443Z,88.60
2022-08-09T14:18:54.634Z,87.40
2022-08-09T14:21:49.851Z,86.50
2022-08-09T14:24:53.396Z,86.60
2022-08-09T14:27:58.196Z,87.80
2022-08-09T14:30:53.798Z,86.20
2022-08-09T14:33:45.964Z,86.20
2022-08-09T14:36:46.658Z,86.20
2022-08-09T14:39:46.904Z,85.70
2022-08-09T14:42:41.191Z,85.90
2022-08-09T14:46:55.000Z,84.60
2022-08-09T14:48:45.798Z,85.00
2022-08-09T14:51:42.242Z,85.00
2022-08-09T14:54:34.916Z,86.20
2022-08-09T14:57:31.842Z,85.40
2022-08-09T15:00:36.731Z,83.90
2022-08-09T15:03:29.460Z,83.20
2022-08-09T15:06:24.148Z,85.00
2022-08-09T15:09:51.936Z,83.70
2022-08-09T15:12:30.326Z,83.40
2022-08-09T15:15:23.544Z,83.30
2022-08-09T15:18:15.959Z,82.70
2022-08-09T15:21:55.400Z,83.70
2022-08-09T15:24:27.186Z,82.80
2022-08-09T15:27:19.678Z,83.90
2022-08-09T15:30:59.385Z,85.60
2022-08-09T15:34:04.310Z,84.30
2022-08-09T15:36:37.013Z,85.50
2022-08-09T15:39:34.559Z,85.60
2022-08-09T15:42:27.346Z,86.90
2022-08-09T15:45:21.937Z,86.60
2022-08-09T15:48:29.106Z,88.10
2022-08-09T15:52:01.741Z,87.50
2022-08-09T15:54:44.561Z,88.10
2022-08-09T15:57:44.358Z,88.00
2022-08-09T16:00:43.875Z,87.70
2022-08-09T16:03:38.534Z,88.20
2022-08-09T16:06:37.295Z,88.30
2022-08-09T16:09:32.742Z,88.10
2022-08-09T16:12:50.152Z,87.30
2022-08-09T16:16:12.231Z,87.20
2022-08-09T16:18:55.129Z,89.20
2022-08-09T16:21:51.973Z,88.30
2022-08-09T16:24:46.356Z,88.40
2022-08-09T16:27:52.760Z,88.50
2022-08-09T16:30:59.097Z,87.50
2022-08-09T16:33:51.811Z,88.20
2022-08-09T16:36:44.021Z,87.50
2022-08-09T16:39:48.001Z,87.60
2022-08-09T16:42:51.067Z,87.50
2022-08-09T16:45:44.207Z,87.70
2022-08-09T16:48:55.948Z,87.70
2022-08-09T16:51:55.186Z,87.80
2022-08-09T16:54:47.724Z,88.40
2022-08-09T16:58:09.779Z,89.00
2022-08-09T17:00:55.249Z,89.60
2022-08-09T17:03:47.620Z,90.10
2022-08-09T17:06:48.328Z,89.00
2022-08-09T17:09:52.214Z,88.50
2022-08-09T17:12:55.276Z,89.20
2022-08-09T17:16:00.166Z,90.00
2022-08-09T17:18:54.631Z,89.30
2022-08-09T17:21:47.433Z,89.50
2022-08-09T17:24:41.475Z,89.60
2022-08-09T17:27:49.499Z,90.20
2022-08-09T17:30:47.593Z,90.10
2022-08-09T17:33:40.383Z,90.50
2022-08-09T17:36:32.593Z,90.70
2022-08-09T17:39:25.347Z,90.70
2022-08-09T17:42:41.203Z,90.80
2022-08-09T17:46:04.059Z,90.90
2022-08-09T17:48:58.891Z,91.10
2022-08-09T17:51:51.786Z,91.10
2022-08-09T17:54:44.552Z,91.60
2022-08-09T17:58:02.822Z,91.60
2022-08-09T18:00:56.498Z,91.80
2022-08-09T18:03:49.308Z,91.70
2022-08-09T18:06:43.098Z,91.70
2022-08-09T18:10:04.234Z,92.00
2022-08-09T18:13:39.560Z,92.40
2022-08-09T18:16:09.894Z,92.70
2022-08-09T18:20:54.308Z,92.90
2022-08-09T18:22:17.175Z,93.10
2022-08-09T18:25:09.864Z,93.20
2022-08-09T18:28:19.026Z,93.30
2022-08-09T18:31:19.137Z,93.40
2022-08-09T18:34:24.453Z,93.80
2022-08-09T18:37:47.327Z,93.90
2022-08-09T18:40:29.377Z,94.00
2022-08-09T18:43:23.393Z,93.90
2022-08-09T18:46:49.931Z,95.10
2022-08-09T18:49:27.936Z,99.20
2022-08-09T18:52:28.537Z,99.10
2022-08-09T18:55:45.560Z,96.60
2022-08-09T18:58:39.745Z,95.90
2022-08-09T19:01:32.207Z,95.50
2022-08-09T19:04:38.440Z,95.50
2022-08-09T19:07:31.521Z,93.80
2022-08-09T19:10:23.845Z,92.70
2022-08-09T19:13:22.909Z,92.10
2022-08-09T19:16:35.953Z,91.10
2022-08-09T19:19:29.109Z,90.60
2022-08-09T19:22:34.112Z,90.30
2022-08-09T19:25:42.493Z,90.10
2022-08-09T19:28:40.035Z,89.90
2022-08-09T19:31:45.053Z,88.80
2022-08-09T19:34:42.724Z,89.00
2022-08-09T19:37:54.383Z,87.10
2022-08-09T19:40:49.952Z,87.40
2022-08-09T19:44:01.171Z,86.90
2022-08-09T19:46:54.472Z,87.40
2022-08-09T19:50:09.609Z,87.40
2022-08-09T19:52:58.942Z,86.70
2022-08-09T19:56:01.935Z,86.10
2022-08-09T19:59:39.311Z,85.60
2022-08-09T20:02:17.364Z,85.40
2022-08-09T20:05:27.481Z,85.90
2022-08-09T20:08:25.121Z,85.70
2022-08-09T20:11:43.236Z,85.80
2022-08-09T20:14:49.997Z,84.90
2022-08-09T20:17:48.257Z,84.90
2022-08-09T20:20:46.620Z,85.50
2022-08-09T20:23:40.212Z,86.00
2022-08-09T20:26:32.562Z,86.40
2022-08-09T20:29:24.807Z,85.80
2022-08-09T20:32:45.390Z,85.90
2022-08-09T20:35:37.983Z,86.40
2022-08-09T20:38:47.556Z,86.70
2022-08-09T20:41:42.652Z,87.20
2022-08-09T20:44:36.518Z,87.30
2022-08-09T20:47:48.464Z,87.70
2022-08-09T20:50:47.356Z,87.60
2022-08-09T20:53:40.995Z,87.80
2022-08-09T20:56:33.954Z,87.80
2022-08-09T21:00:19.575Z,86.50
2022-08-09T21:02:40.170Z,87.00
2022-08-09T21:05:53.796Z,86.90
2022-08-09T21:08:47.039Z,86.80
2022-08-09T21:14:57.421Z,86.40
2022-08-09T21:18:23.028Z,86.30
2022-08-09T21:21:02.400Z,86.80
2022-08-09T21:24:09.958Z,86.80
2022-08-09T21:27:50.338Z,86.30
2022-08-09T21:30:16.080Z,86.80
2022-08-09T21:33:11.441Z,86.70
2022-08-09T21:36:08.458Z,86.90
2022-08-09T21:39:05.776Z,86.90
2022-08-09T21:42:03.605Z,86.70
2022-08-09T21:44:59.289Z,87.00
2022-08-09T21:47:51.569Z,87.40
2022-08-09T21:50:49.676Z,87.80
2022-08-09T21:53:43.678Z,88.00
2022-08-09T21:56:44.841Z,87.90
2022-08-09T21:59:47.264Z,88.50
2022-08-09T22:02:40.147Z,88.50
2022-08-09T22:05:37.308Z,88.20
2022-08-09T22:08:34.019Z,88.10
2022-08-09T22:12:06.707Z,88.20
2022-08-09T22:14:38.358Z,88.30
2022-08-09T22:17:32.161Z,88.70
2022-08-09T22:20:27.338Z,88.90
2022-08-09T22:23:25.293Z,88.80
2022-08-09T22:26:34.152Z,89.00
2022-08-09T22:29:34.513Z,88.80
2022-08-09T22:32:38.962Z,88.90
2022-08-09T22:36:01.623Z,88.50
2022-08-09T22:38:43.936Z,88.80
2022-08-09T22:41:36.949Z,89.10
2022-08-09T22:44:34.951Z,89.60
2022-08-09T22:48:10.961Z,89.70
2022-08-09T22:50:39.993Z,89.20
2022-08-09T22:53:33.472Z,89.70
2022-08-09T22:56:44.718Z,89.50
2022-08-09T22:59:58.050Z,89.50
2022-08-09T23:02:51.104Z,89.60
2022-08-09T23:05:45.717Z,89.80
2022-08-09T23:08:47.068Z,90.00
2022-08-09T23:11:39.261Z,90.40
2022-08-09T23:14:41.245Z,90.10
2022-08-09T23:17:34.948Z,90.40
2022-08-09T23:20:28.808Z,90.10
2022-08-09T23:23:21.053Z,90.20
2022-08-09T23:26:13.298Z,90.60
2022-08-09T23:29:11.649Z,90.50
2022-08-09T23:32:04.881Z,90.70
2022-08-09T23:34:57.315Z,91.00
2022-08-09T23:37:49.544Z,90.80
2022-08-09T23:40:41.737Z,90.80
2022-08-09T23:43:34.012Z,91.00
2022-08-09T23:46:27.602Z,90.80
2022-08-09T23:49:24.522Z,90.90
2022-08-09T23:52:17.243Z,91.00
2022-08-09T23:55:09.670Z,91.00
2022-08-09T23:58:09.319Z,91.10
